Aérodrome :
LOGIN :

S'inscrire | Disclaimer

   EN    FR    IT 

 










Légende :    VFR   VFR Marginal   IFR   IFR Intensif   IFR Très Intensif
Visi : 
Plafond : 
>= 8 km
>= 3000ft
5 à 8 km
1000 à 3000 ft
1500m à 5 km
500 à 1000 ft
800 à 1500m
200 à 500 ft
< 800m
< 200 ft
Symboles :   Orages  Brouillard  Fortes neiges  Fortes précipitations  Vent > 20 kt
SIGMETs :   Divers  Orages  Givrage  Turbulence  Onde Orograph.  Cendres Volcan.






- Altitude de l'aérodrome : 289 ft


LIRG - Guidonia

DERNIER METAR :
  • 051755Z 16009KT 9999 SCT040 24/16 Q1009 RMK SCT MON NE LIB NC VIS MIN 9999 BLU

METARs EXPIRÉS :
  • 051655Z 15014KT 9999 SCT035 25/16 Q1009

TAF TAF LIRG
Valide du 05 à 15h jusqu'au 06 à 00h UTC


051400Z 0515/0524 01015KT 9999 FEW025 SCT035
TEMPO 0515/0521 BKN025
PROB40
TEMPO 0515/0518 5000 TSRA FEW023CB
BECMG 0519/0521 VRB05KT



MET'MAP, la Météo Aéronautique d'un coup d'oeil ! - Copyright ORBIFLY Décembre 2007 - Disclaimer

ORBIFLY MET'MAP TEAM :

Programmation & Développement : Alexandra Zaïnal
Sur une idée originale de : Baudouin d'Aumeries
Assistance à la programmation : Marc-Olivier Méhu
Soutien technique & logistique : Manuel Goepfert

Contact : metmap@orbifly.com




SOURCES & CREDITS :

   NOAA